createdAt,value
2023-02-03T00:04:52.880Z,0.22
2023-02-03T00:09:56.976Z,0.25
2023-02-03T00:15:05.810Z,0.28
2023-02-03T00:20:08.926Z,0.32
2023-02-03T00:25:12.031Z,0.31
2023-02-03T00:30:34.935Z,0.31
2023-02-03T00:35:40.560Z,0.31
2023-02-03T00:40:42.765Z,0.33
2023-02-03T00:45:45.193Z,0.33
2023-02-03T00:50:50.425Z,0.31
2023-02-03T00:55:52.967Z,0.25
2023-02-03T01:01:00.028Z,0.21
2023-02-03T01:06:14.775Z,0.18
2023-02-03T01:11:25.573Z,0.16
2023-02-03T01:16:31.483Z,0.12
2023-02-03T01:21:36.246Z,0.09
2023-02-03T01:26:41.009Z,0.04
2023-02-03T01:31:43.180Z,-0.05
2023-02-03T01:36:47.274Z,-0.19
2023-02-03T01:41:49.201Z,-0.37
2023-02-03T01:46:51.834Z,-0.55
2023-02-03T01:51:56.599Z,-0.74
2023-02-03T01:57:04.850Z,-0.94
2023-02-03T02:02:08.465Z,-1.10
2023-02-03T02:07:12.123Z,-1.19
2023-02-03T02:12:16.874Z,-1.22
2023-02-03T02:17:55.516Z,-1.22
2023-02-03T02:23:19.570Z,-1.19
2023-02-03T02:28:52.456Z,-1.12
2023-02-03T02:34:23.512Z,-1.02
2023-02-03T02:39:50.288Z,-0.95
2023-02-03T02:45:05.341Z,-0.90
2023-02-03T02:50:16.793Z,-0.90
2023-02-03T02:55:24.760Z,-0.93
2023-02-03T03:00:31.424Z,-0.97
2023-02-03T03:05:34.575Z,-1.00
2023-02-03T03:10:41.751Z,-1.04
2023-02-03T03:15:45.993Z,-1.07
2023-02-03T03:20:51.752Z,-1.07
2023-02-03T03:26:02.451Z,-1.07
2023-02-03T03:31:05.481Z,-1.09
2023-02-03T03:36:26.198Z,-1.09
2023-02-03T03:41:55.778Z,-1.09
2023-02-03T03:47:29.290Z,-1.11
2023-02-03T03:52:36.124Z,-1.15
2023-02-03T03:57:56.814Z,-1.17
2023-02-03T04:03:05.184Z,-1.19
2023-02-03T04:08:07.779Z,-1.20
2023-02-03T04:13:11.343Z,-1.20
2023-02-03T04:18:15.552Z,-1.19
2023-02-03T04:23:18.140Z,-1.18
2023-02-03T04:28:20.177Z,-1.16
2023-02-03T04:33:22.501Z,-1.15
2023-02-03T04:38:26.386Z,-1.15
2023-02-03T04:43:29.852Z,-1.15
2023-02-03T04:48:33.566Z,-1.15
2023-02-03T04:53:36.012Z,-1.14
2023-02-03T04:58:39.211Z,-1.13
2023-02-03T05:03:41.361Z,-1.12
2023-02-03T05:08:43.973Z,-1.12
2023-02-03T05:13:46.963Z,-1.12
2023-02-03T05:18:49.449Z,-1.11
2023-02-03T05:23:54.585Z,-1.11
2023-02-03T05:28:57.706Z,-1.10
2023-02-03T05:34:00.116Z,-1.11
2023-02-03T05:39:02.092Z,-1.10
2023-02-03T05:44:06.680Z,-1.09
2023-02-03T05:49:09.512Z,-1.08
2023-02-03T05:54:11.591Z,-1.05
2023-02-03T05:59:13.861Z,-1.00
2023-02-03T06:04:16.927Z,-0.99
2023-02-03T06:09:18.866Z,-0.99
2023-02-03T06:14:21.143Z,-0.98
2023-02-03T06:19:24.331Z,-0.98
2023-02-03T06:24:27.123Z,-0.97
2023-02-03T06:29:29.042Z,-0.95
2023-02-03T06:34:32.924Z,-0.93
2023-02-03T06:39:35.618Z,-0.91
2023-02-03T06:44:38.139Z,-0.87
2023-02-03T06:49:43.185Z,-0.81
2023-02-03T06:54:45.622Z,-0.75
2023-02-03T06:59:47.786Z,-0.65
2023-02-03T07:04:52.833Z,-0.55
2023-02-03T07:09:57.500Z,-0.47
2023-02-03T07:14:59.430Z,-0.40
2023-02-03T07:20:02.066Z,-0.33
2023-02-03T07:25:07.049Z,-0.27
2023-02-03T07:30:13.075Z,-0.22
2023-02-03T07:35:16.045Z,-0.16
2023-02-03T07:40:19.008Z,-0.11
2023-02-03T07:45:22.263Z,-0.06
2023-02-03T07:50:24.355Z,0.00
2023-02-03T07:55:26.665Z,0.10
2023-02-03T08:00:29.281Z,0.19
2023-02-03T08:05:31.752Z,0.25
2023-02-03T08:10:33.824Z,0.32
2023-02-03T08:15:36.357Z,0.37
2023-02-03T08:20:40.968Z,0.41
2023-02-03T08:25:43.078Z,0.39
2023-02-03T08:30:44.987Z,0.34
2023-02-03T08:35:51.255Z,0.29
2023-02-03T08:40:53.321Z,0.25
2023-02-03T08:45:55.157Z,0.20
2023-02-03T08:51:01.350Z,0.24
2023-02-03T08:56:08.456Z,0.33
2023-02-03T09:01:13.844Z,0.41
2023-02-03T09:06:17.231Z,0.41
2023-02-03T09:11:31.454Z,0.43
2023-02-03T09:16:35.833Z,0.46
2023-02-03T09:21:40.878Z,0.54
2023-02-03T09:26:56.403Z,0.57
2023-02-03T09:32:07.004Z,0.57
2023-02-03T09:37:12.248Z,0.64
2023-02-03T09:43:10.443Z,0.68
2023-02-03T09:48:25.176Z,0.69
2023-02-03T09:53:48.710Z,0.72
2023-02-03T09:58:51.099Z,0.72
2023-02-03T10:04:23.384Z,0.76
2023-02-03T10:09:44.311Z,0.83
2023-02-03T10:15:32.355Z,0.83
2023-02-03T10:20:58.961Z,0.87
2023-02-03T10:26:27.270Z,0.92
2023-02-03T10:31:36.830Z,0.91
2023-02-03T10:37:23.870Z,0.89
2023-02-03T10:42:46.391Z,0.90
2023-02-03T10:47:53.827Z,0.92
2023-02-03T10:53:40.193Z,0.94
2023-02-03T10:58:54.430Z,0.95
2023-02-03T11:04:03.702Z,0.96
2023-02-03T11:09:29.137Z,1.00
2023-02-03T11:14:39.262Z,1.03
2023-02-03T11:19:46.780Z,1.10
2023-02-03T11:24:48.863Z,1.16
2023-02-03T11:30:15.684Z,1.19
2023-02-03T11:35:27.052Z,1.22
2023-02-03T11:40:34.854Z,1.26
2023-02-03T11:45:54.863Z,1.28
2023-02-03T11:51:14.758Z,1.31
2023-02-03T11:56:36.044Z,1.38
2023-02-03T12:02:07.950Z,1.42
2023-02-03T12:07:37.365Z,1.44
2023-02-03T12:13:20.404Z,1.43
2023-02-03T12:18:46.682Z,1.41
2023-02-03T12:24:08.693Z,1.40
2023-02-03T12:29:32.480Z,1.37
2023-02-03T12:34:41.375Z,1.37
2023-02-03T12:39:53.004Z,1.38
2023-02-03T12:45:02.512Z,1.38
2023-02-03T12:50:21.957Z,1.35
2023-02-03T12:55:46.501Z,1.29
2023-02-03T13:01:01.369Z,1.19
2023-02-03T13:06:15.995Z,1.07
2023-02-03T13:11:39.023Z,0.94
2023-02-03T13:16:46.089Z,0.84
2023-02-03T13:21:49.982Z,0.77
2023-02-03T13:27:00.762Z,0.73
2023-02-03T13:32:27.218Z,0.74
2023-02-03T13:37:48.080Z,0.80
2023-02-03T13:43:36.884Z,0.85
2023-02-03T13:48:46.077Z,0.89
2023-02-03T13:53:50.894Z,0.91
2023-02-03T13:59:04.024Z,0.93
2023-02-03T14:04:26.714Z,1.00
2023-02-03T14:09:46.274Z,1.05
2023-02-03T14:15:19.404Z,1.08
2023-02-03T14:20:51.261Z,1.14
2023-02-03T14:26:09.197Z,1.18
2023-02-03T14:31:19.563Z,1.22
2023-02-03T14:36:44.360Z,1.31
2023-02-03T14:42:19.627Z,1.41
2023-02-03T14:48:21.203Z,1.42
2023-02-03T14:53:42.016Z,1.37
2023-02-03T14:59:04.413Z,1.36
2023-02-03T15:04:25.327Z,1.38
2023-02-03T15:09:47.469Z,1.42
2023-02-03T15:14:50.308Z,1.47
2023-02-03T15:19:56.185Z,1.54
2023-02-03T15:25:04.989Z,1.59
2023-02-03T15:30:28.262Z,1.68
2023-02-03T15:35:34.132Z,1.82
2023-02-03T15:40:42.029Z,1.95
2023-02-03T15:45:52.418Z,2.03
2023-02-03T15:51:03.017Z,2.15
2023-02-03T15:56:21.810Z,2.27
2023-02-03T16:01:35.969Z,2.39
2023-02-03T16:06:44.090Z,2.49
2023-02-03T16:12:25.608Z,2.60
2023-02-03T16:17:37.006Z,2.68
2023-02-03T16:22:55.248Z,2.72
2023-02-03T16:28:37.687Z,2.75
2023-02-03T16:34:08.526Z,2.79
2023-02-03T16:39:32.255Z,2.84
2023-02-03T16:44:53.709Z,2.86
2023-02-03T16:50:39.292Z,2.86
2023-02-03T16:55:47.119Z,2.82
2023-02-03T17:00:53.617Z,2.80
2023-02-03T17:06:04.155Z,2.80
2023-02-03T17:11:15.999Z,2.81
2023-02-03T17:16:25.529Z,2.84
2023-02-03T17:21:47.830Z,2.87
2023-02-03T17:27:02.504Z,2.90
2023-02-03T17:32:21.802Z,2.95
2023-02-03T17:37:27.881Z,2.98
2023-02-03T17:53:37.259Z,2.97
2023-02-03T17:58:46.699Z,2.99
2023-02-03T18:04:10.046Z,2.98
2023-02-03T18:09:26.048Z,2.99
2023-02-03T18:14:50.711Z,2.98
2023-02-03T18:20:00.888Z,2.95
2023-02-03T18:25:24.726Z,2.95
2023-02-03T18:30:50.143Z,2.94
2023-02-03T18:36:23.701Z,2.91
2023-02-03T18:41:37.007Z,2.86
2023-02-03T18:47:11.505Z,2.80
2023-02-03T18:52:19.962Z,2.79
2023-02-03T18:57:26.523Z,2.76
2023-02-03T19:02:43.246Z,2.69
2023-02-03T19:07:49.293Z,2.58
2023-02-03T19:12:52.420Z,2.51
2023-02-03T19:17:56.462Z,2.47
2023-02-03T19:23:09.197Z,2.43
2023-02-03T19:28:20.136Z,2.39
2023-02-03T19:33:30.974Z,2.39
2023-02-03T19:38:33.638Z,2.37
2023-02-03T19:43:37.545Z,2.37
2023-02-03T19:48:46.109Z,2.36
2023-02-03T19:53:59.001Z,2.34
2023-02-03T19:59:03.457Z,2.32
2023-02-03T20:04:07.741Z,2.32
2023-02-03T20:09:12.446Z,2.33
2023-02-03T20:14:19.673Z,2.35
2023-02-03T20:19:22.124Z,2.36
2023-02-03T20:24:37.482Z,2.38
2023-02-03T20:29:42.054Z,2.41
2023-02-03T20:34:46.871Z,2.44
2023-02-03T20:39:51.324Z,2.48
2023-02-03T20:44:56.258Z,2.51
2023-02-03T20:49:59.812Z,2.54
2023-02-03T20:55:16.980Z,2.57
2023-02-03T21:00:25.488Z,2.59
2023-02-03T21:05:37.947Z,2.62
2023-02-03T21:10:48.125Z,2.63
2023-02-03T21:15:55.008Z,2.67
2023-02-03T21:20:59.019Z,2.72
2023-02-03T21:26:01.835Z,2.74
2023-02-03T21:31:05.668Z,2.77
2023-02-03T21:36:24.449Z,2.79
2023-02-03T21:41:32.609Z,2.80
2023-02-03T21:46:37.391Z,2.82
2023-02-03T21:51:39.786Z,2.85
2023-02-03T21:56:43.042Z,2.87
2023-02-03T22:01:45.686Z,2.88
2023-02-03T22:06:53.974Z,2.92
2023-02-03T22:12:03.609Z,2.94
2023-02-03T22:17:14.279Z,2.95
2023-02-03T22:22:17.888Z,2.97
2023-02-03T22:27:25.216Z,2.97
2023-02-03T22:32:30.499Z,2.98
2023-02-03T22:37:36.105Z,3.00
2023-02-03T22:42:39.047Z,3.03
2023-02-03T22:47:42.789Z,3.04
2023-02-03T22:52:51.326Z,3.07
2023-02-03T22:58:02.357Z,3.08
2023-02-03T23:03:16.776Z,3.10
2023-02-03T23:08:21.643Z,3.11
2023-02-03T23:13:49.724Z,3.10
2023-02-03T23:19:03.635Z,3.08
2023-02-03T23:24:22.096Z,3.05
2023-02-03T23:29:33.007Z,3.05
2023-02-03T23:35:08.509Z,3.08
2023-02-03T23:40:15.870Z,3.12
2023-02-03T23:45:37.962Z,3.12
2023-02-03T23:50:50.069Z,3.13
2023-02-03T23:55:57.070Z,3.14
